sensor_id;sensor_type;location;lat;lon;timestamp;P1;durP1;ratioP1;P2;durP2;ratioP2
13475;SDS011;6810;63.824;20.288;2023-04-06T00:00:38;1.53;;;0.70;;
13475;SDS011;6810;63.824;20.288;2023-04-06T00:03:05;2.20;;;0.60;;
13475;SDS011;6810;63.824;20.288;2023-04-06T00:05:32;0.83;;;0.50;;
13475;SDS011;6810;63.824;20.288;2023-04-06T00:07:59;0.40;;;0.40;;
13475;SDS011;6810;63.824;20.288;2023-04-06T00:10:26;0.83;;;0.80;;
13475;SDS011;6810;63.824;20.288;2023-04-06T00:12:54;1.90;;;0.70;;
13475;SDS011;6810;63.824;20.288;2023-04-06T00:15:23;2.63;;;0.60;;
13475;SDS011;6810;63.824;20.288;2023-04-06T00:17:50;1.77;;;0.67;;
13475;SDS011;6810;63.824;20.288;2023-04-06T00:20:17;0.43;;;0.40;;
13475;SDS011;6810;63.824;20.288;2023-04-06T00:22:44;1.17;;;0.47;;
13475;SDS011;6810;63.824;20.288;2023-04-06T00:25:11;1.20;;;0.50;;
13475;SDS011;6810;63.824;20.288;2023-04-06T00:27:38;0.63;;;0.50;;
13475;SDS011;6810;63.824;20.288;2023-04-06T00:30:06;1.17;;;0.60;;
13475;SDS011;6810;63.824;20.288;2023-04-06T00:32:34;1.13;;;0.50;;
13475;SDS011;6810;63.824;20.288;2023-04-06T00:35:02;0.87;;;0.43;;
13475;SDS011;6810;63.824;20.288;2023-04-06T00:37:30;1.10;;;0.60;;
13475;SDS011;6810;63.824;20.288;2023-04-06T00:39:57;1.63;;;0.70;;
13475;SDS011;6810;63.824;20.288;2023-04-06T00:42:24;0.47;;;0.43;;
13475;SDS011;6810;63.824;20.288;2023-04-06T00:44:56;1.00;;;0.40;;
13475;SDS011;6810;63.824;20.288;2023-04-06T00:47:25;0.50;;;0.43;;
13475;SDS011;6810;63.824;20.288;2023-04-06T00:49:53;0.70;;;0.47;;
13475;SDS011;6810;63.824;20.288;2023-04-06T00:52:21;0.77;;;0.40;;
13475;SDS011;6810;63.824;20.288;2023-04-06T00:54:49;0.63;;;0.40;;
13475;SDS011;6810;63.824;20.288;2023-04-06T00:57:19;1.90;;;0.50;;
13475;SDS011;6810;63.824;20.288;2023-04-06T00:59:51;0.97;;;0.43;;
13475;SDS011;6810;63.824;20.288;2023-04-06T01:02:20;0.53;;;0.30;;
13475;SDS011;6810;63.824;20.288;2023-04-06T01:04:50;1.67;;;1.33;;
13475;SDS011;6810;63.824;20.288;2023-04-06T01:07:31;0.77;;;0.50;;
13475;SDS011;6810;63.824;20.288;2023-04-06T01:10:06;0.53;;;0.40;;
13475;SDS011;6810;63.824;20.288;2023-04-06T01:12:35;1.70;;;0.50;;
13475;SDS011;6810;63.824;20.288;2023-04-06T01:15:09;1.10;;;0.40;;
13475;SDS011;6810;63.824;20.288;2023-04-06T01:17:40;1.17;;;0.50;;
13475;SDS011;6810;63.824;20.288;2023-04-06T01:20:12;2.47;;;0.53;;
13475;SDS011;6810;63.824;20.288;2023-04-06T01:22:39;1.60;;;0.50;;
13475;SDS011;6810;63.824;20.288;2023-04-06T01:25:07;0.87;;;0.40;;
13475;SDS011;6810;63.824;20.288;2023-04-06T01:28:04;0.50;;;0.40;;
13475;SDS011;6810;63.824;20.288;2023-04-06T01:30:49;1.87;;;0.77;;
13475;SDS011;6810;63.824;20.288;2023-04-06T01:33:40;1.47;;;0.60;;
13475;SDS011;6810;63.824;20.288;2023-04-06T01:36:11;0.77;;;0.50;;
13475;SDS011;6810;63.824;20.288;2023-04-06T01:38:38;1.03;;;0.60;;
13475;SDS011;6810;63.824;20.288;2023-04-06T01:41:06;0.80;;;0.70;;
13475;SDS011;6810;63.824;20.288;2023-04-06T01:43:44;1.43;;;0.60;;
13475;SDS011;6810;63.824;20.288;2023-04-06T01:46:12;2.00;;;0.60;;
13475;SDS011;6810;63.824;20.288;2023-04-06T01:48:42;1.63;;;0.60;;
13475;SDS011;6810;63.824;20.288;2023-04-06T01:51:30;1.43;;;0.53;;
13475;SDS011;6810;63.824;20.288;2023-04-06T01:54:00;0.70;;;0.50;;
13475;SDS011;6810;63.824;20.288;2023-04-06T01:56:39;1.67;;;0.60;;
13475;SDS011;6810;63.824;20.288;2023-04-06T01:59:24;1.53;;;0.60;;
13475;SDS011;6810;63.824;20.288;2023-04-06T02:01:52;0.40;;;0.40;;
13475;SDS011;6810;63.824;20.288;2023-04-06T02:04:20;2.67;;;0.80;;
13475;SDS011;6810;63.824;20.288;2023-04-06T02:06:53;1.00;;;0.57;;
13475;SDS011;6810;63.824;20.288;2023-04-06T02:09:23;1.20;;;0.50;;
13475;SDS011;6810;63.824;20.288;2023-04-06T02:11:50;1.23;;;0.40;;
13475;SDS011;6810;63.824;20.288;2023-04-06T02:14:17;0.30;;;0.30;;
13475;SDS011;6810;63.824;20.288;2023-04-06T02:16:49;0.60;;;0.50;;
13475;SDS011;6810;63.824;20.288;2023-04-06T02:19:17;1.03;;;0.50;;
13475;SDS011;6810;63.824;20.288;2023-04-06T02:21:44;3.10;;;0.60;;
13475;SDS011;6810;63.824;20.288;2023-04-06T02:24:11;1.40;;;0.60;;
13475;SDS011;6810;63.824;20.288;2023-04-06T02:26:38;0.73;;;0.47;;
13475;SDS011;6810;63.824;20.288;2023-04-06T02:29:05;1.47;;;0.57;;
13475;SDS011;6810;63.824;20.288;2023-04-06T02:31:33;0.60;;;0.30;;
13475;SDS011;6810;63.824;20.288;2023-04-06T02:34:01;1.53;;;0.40;;
13475;SDS011;6810;63.824;20.288;2023-04-06T02:36:30;0.53;;;0.40;;
13475;SDS011;6810;63.824;20.288;2023-04-06T02:38:57;1.87;;;0.40;;
13475;SDS011;6810;63.824;20.288;2023-04-06T02:41:24;0.57;;;0.43;;
13475;SDS011;6810;63.824;20.288;2023-04-06T02:43:52;0.60;;;0.40;;
13475;SDS011;6810;63.824;20.288;2023-04-06T02:46:30;0.73;;;0.50;;
13475;SDS011;6810;63.824;20.288;2023-04-06T02:48:57;1.23;;;0.40;;
13475;SDS011;6810;63.824;20.288;2023-04-06T02:51:29;1.80;;;0.50;;
13475;SDS011;6810;63.824;20.288;2023-04-06T02:54:07;0.40;;;0.40;;
13475;SDS011;6810;63.824;20.288;2023-04-06T02:56:34;1.33;;;0.50;;
13475;SDS011;6810;63.824;20.288;2023-04-06T02:59:02;0.77;;;0.40;;
13475;SDS011;6810;63.824;20.288;2023-04-06T03:01:31;1.90;;;0.50;;
13475;SDS011;6810;63.824;20.288;2023-04-06T03:04:02;1.73;;;0.60;;
13475;SDS011;6810;63.824;20.288;2023-04-06T03:06:30;1.87;;;0.50;;
13475;SDS011;6810;63.824;20.288;2023-04-06T03:09:06;0.67;;;0.50;;
13475;SDS011;6810;63.824;20.288;2023-04-06T03:11:34;0.83;;;0.53;;
13475;SDS011;6810;63.824;20.288;2023-04-06T03:14:01;0.83;;;0.50;;
13475;SDS011;6810;63.824;20.288;2023-04-06T03:16:28;0.40;;;0.40;;
13475;SDS011;6810;63.824;20.288;2023-04-06T03:18:57;1.37;;;0.50;;
13475;SDS011;6810;63.824;20.288;2023-04-06T03:21:24;1.53;;;0.70;;
13475;SDS011;6810;63.824;20.288;2023-04-06T03:23:52;0.80;;;0.60;;
13475;SDS011;6810;63.824;20.288;2023-04-06T03:26:20;0.83;;;0.60;;
13475;SDS011;6810;63.824;20.288;2023-04-06T03:28:50;0.90;;;0.50;;
13475;SDS011;6810;63.824;20.288;2023-04-06T03:31:21;0.60;;;0.53;;
13475;SDS011;6810;63.824;20.288;2023-04-06T03:34:11;1.30;;;0.77;;
13475;SDS011;6810;63.824;20.288;2023-04-06T03:36:39;0.40;;;0.40;;
13475;SDS011;6810;63.824;20.288;2023-04-06T03:39:07;0.80;;;0.57;;
13475;SDS011;6810;63.824;20.288;2023-04-06T03:41:39;0.97;;;0.60;;
13475;SDS011;6810;63.824;20.288;2023-04-06T03:44:26;0.60;;;0.60;;
13475;SDS011;6810;63.824;20.288;2023-04-06T03:46:53;0.70;;;0.50;;
13475;SDS011;6810;63.824;20.288;2023-04-06T03:49:21;1.17;;;0.50;;
13475;SDS011;6810;63.824;20.288;2023-04-06T03:51:50;3.00;;;0.53;;
13475;SDS011;6810;63.824;20.288;2023-04-06T03:54:17;1.07;;;0.60;;
13475;SDS011;6810;63.824;20.288;2023-04-06T03:56:44;1.23;;;0.70;;
13475;SDS011;6810;63.824;20.288;2023-04-06T03:59:11;1.00;;;0.73;;
13475;SDS011;6810;63.824;20.288;2023-04-06T04:01:39;1.00;;;0.70;;
13475;SDS011;6810;63.824;20.288;2023-04-06T04:04:06;1.40;;;0.60;;
13475;SDS011;6810;63.824;20.288;2023-04-06T04:06:33;1.50;;;0.43;;
13475;SDS011;6810;63.824;20.288;2023-04-06T04:09:00;1.30;;;0.80;;
13475;SDS011;6810;63.824;20.288;2023-04-06T04:11:27;0.87;;;0.50;;
13475;SDS011;6810;63.824;20.288;2023-04-06T04:13:57;0.77;;;0.67;;
13475;SDS011;6810;63.824;20.288;2023-04-06T04:16:24;0.40;;;0.40;;
13475;SDS011;6810;63.824;20.288;2023-04-06T04:18:51;2.73;;;0.67;;
13475;SDS011;6810;63.824;20.288;2023-04-06T04:21:18;2.43;;;0.70;;
13475;SDS011;6810;63.824;20.288;2023-04-06T04:23:45;1.10;;;0.60;;
13475;SDS011;6810;63.824;20.288;2023-04-06T04:26:12;1.03;;;0.57;;
13475;SDS011;6810;63.824;20.288;2023-04-06T04:28:40;1.37;;;0.93;;
13475;SDS011;6810;63.824;20.288;2023-04-06T04:31:07;0.97;;;0.60;;
13475;SDS011;6810;63.824;20.288;2023-04-06T04:33:34;1.53;;;0.63;;
13475;SDS011;6810;63.824;20.288;2023-04-06T04:36:07;0.70;;;0.50;;
13475;SDS011;6810;63.824;20.288;2023-04-06T04:38:39;0.67;;;0.50;;
13475;SDS011;6810;63.824;20.288;2023-04-06T04:41:06;1.67;;;0.60;;
13475;SDS011;6810;63.824;20.288;2023-04-06T04:43:36;0.60;;;0.60;;
13475;SDS011;6810;63.824;20.288;2023-04-06T04:46:03;3.87;;;0.90;;
13475;SDS011;6810;63.824;20.288;2023-04-06T04:48:36;2.47;;;0.67;;
13475;SDS011;6810;63.824;20.288;2023-04-06T04:51:06;1.47;;;0.70;;
13475;SDS011;6810;63.824;20.288;2023-04-06T04:53:53;1.80;;;0.53;;
13475;SDS011;6810;63.824;20.288;2023-04-06T04:56:25;2.63;;;0.77;;
13475;SDS011;6810;63.824;20.288;2023-04-06T04:58:57;0.60;;;0.60;;
13475;SDS011;6810;63.824;20.288;2023-04-06T05:01:27;1.27;;;0.70;;
13475;SDS011;6810;63.824;20.288;2023-04-06T05:03:54;1.20;;;0.80;;
13475;SDS011;6810;63.824;20.288;2023-04-06T05:06:21;1.27;;;0.80;;
13475;SDS011;6810;63.824;20.288;2023-04-06T05:08:49;0.80;;;0.60;;
13475;SDS011;6810;63.824;20.288;2023-04-06T05:11:16;2.13;;;0.70;;
13475;SDS011;6810;63.824;20.288;2023-04-06T05:13:49;1.07;;;0.53;;
13475;SDS011;6810;63.824;20.288;2023-04-06T05:16:20;4.80;;;1.20;;
13475;SDS011;6810;63.824;20.288;2023-04-06T05:18:50;1.60;;;0.77;;
13475;SDS011;6810;63.824;20.288;2023-04-06T05:21:18;1.80;;;0.73;;
13475;SDS011;6810;63.824;20.288;2023-04-06T05:24:06;1.40;;;0.87;;
13475;SDS011;6810;63.824;20.288;2023-04-06T05:26:33;2.13;;;0.70;;
13475;SDS011;6810;63.824;20.288;2023-04-06T05:29:07;3.47;;;0.80;;
13475;SDS011;6810;63.824;20.288;2023-04-06T05:31:36;1.23;;;0.80;;
13475;SDS011;6810;63.824;20.288;2023-04-06T05:34:03;1.20;;;0.73;;
13475;SDS011;6810;63.824;20.288;2023-04-06T05:36:33;3.03;;;0.90;;
13475;SDS011;6810;63.824;20.288;2023-04-06T05:39:06;1.77;;;0.80;;
13475;SDS011;6810;63.824;20.288;2023-04-06T05:41:39;1.10;;;0.60;;
13475;SDS011;6810;63.824;20.288;2023-04-06T05:44:09;1.00;;;0.90;;
13475;SDS011;6810;63.824;20.288;2023-04-06T05:46:37;1.40;;;0.60;;
13475;SDS011;6810;63.824;20.288;2023-04-06T05:49:06;1.83;;;0.60;;
13475;SDS011;6810;63.824;20.288;2023-04-06T05:51:35;2.57;;;0.70;;
13475;SDS011;6810;63.824;20.288;2023-04-06T05:54:02;1.43;;;0.70;;
13475;SDS011;6810;63.824;20.288;2023-04-06T05:56:30;1.77;;;0.80;;
13475;SDS011;6810;63.824;20.288;2023-04-06T05:58:59;1.07;;;0.50;;
13475;SDS011;6810;63.824;20.288;2023-04-06T06:01:28;1.67;;;0.77;;
13475;SDS011;6810;63.824;20.288;2023-04-06T06:03:56;1.73;;;0.70;;
13475;SDS011;6810;63.824;20.288;2023-04-06T06:06:27;1.33;;;0.63;;
13475;SDS011;6810;63.824;20.288;2023-04-06T06:09:07;2.40;;;0.90;;
13475;SDS011;6810;63.824;20.288;2023-04-06T06:11:40;2.93;;;0.70;;
13475;SDS011;6810;63.824;20.288;2023-04-06T06:14:09;1.00;;;0.80;;
13475;SDS011;6810;63.824;20.288;2023-04-06T06:16:38;1.40;;;0.70;;
13475;SDS011;6810;63.824;20.288;2023-04-06T06:19:07;0.50;;;0.50;;
13475;SDS011;6810;63.824;20.288;2023-04-06T06:21:35;1.70;;;0.70;;
13475;SDS011;6810;63.824;20.288;2023-04-06T06:24:04;0.80;;;0.70;;
13475;SDS011;6810;63.824;20.288;2023-04-06T06:26:32;1.87;;;0.80;;
13475;SDS011;6810;63.824;20.288;2023-04-06T06:28:59;2.20;;;0.50;;
13475;SDS011;6810;63.824;20.288;2023-04-06T06:31:27;0.63;;;0.50;;
13475;SDS011;6810;63.824;20.288;2023-04-06T06:33:54;1.37;;;0.73;;
13475;SDS011;6810;63.824;20.288;2023-04-06T06:36:21;2.50;;;0.80;;
13475;SDS011;6810;63.824;20.288;2023-04-06T06:38:49;1.90;;;0.70;;
13475;SDS011;6810;63.824;20.288;2023-04-06T06:41:18;1.63;;;0.70;;
13475;SDS011;6810;63.824;20.288;2023-04-06T06:43:45;1.30;;;0.70;;
13475;SDS011;6810;63.824;20.288;2023-04-06T06:46:12;1.13;;;0.70;;
13475;SDS011;6810;63.824;20.288;2023-04-06T06:48:40;2.77;;;0.70;;
13475;SDS011;6810;63.824;20.288;2023-04-06T06:51:07;1.60;;;0.77;;
13475;SDS011;6810;63.824;20.288;2023-04-06T06:53:36;1.07;;;0.53;;
13475;SDS011;6810;63.824;20.288;2023-04-06T06:56:03;2.47;;;0.90;;
13475;SDS011;6810;63.824;20.288;2023-04-06T06:58:30;1.23;;;0.70;;
13475;SDS011;6810;63.824;20.288;2023-04-06T07:00:58;1.10;;;0.60;;
13475;SDS011;6810;63.824;20.288;2023-04-06T07:03:28;1.40;;;0.70;;
13475;SDS011;6810;63.824;20.288;2023-04-06T07:05:56;2.07;;;0.80;;
13475;SDS011;6810;63.824;20.288;2023-04-06T07:08:24;1.30;;;0.90;;
13475;SDS011;6810;63.824;20.288;2023-04-06T07:10:52;0.70;;;0.60;;
13475;SDS011;6810;63.824;20.288;2023-04-06T07:13:19;1.33;;;0.90;;
13475;SDS011;6810;63.824;20.288;2023-04-06T07:15:54;0.87;;;0.60;;
13475;SDS011;6810;63.824;20.288;2023-04-06T07:18:21;1.80;;;1.10;;
13475;SDS011;6810;63.824;20.288;2023-04-06T07:20:49;1.17;;;0.73;;
13475;SDS011;6810;63.824;20.288;2023-04-06T07:23:16;2.63;;;1.00;;
13475;SDS011;6810;63.824;20.288;2023-04-06T07:25:44;1.23;;;0.70;;
13475;SDS011;6810;63.824;20.288;2023-04-06T07:28:11;1.43;;;1.10;;
13475;SDS011;6810;63.824;20.288;2023-04-06T07:30:39;0.80;;;0.73;;
13475;SDS011;6810;63.824;20.288;2023-04-06T07:33:08;1.90;;;0.93;;
13475;SDS011;6810;63.824;20.288;2023-04-06T07:35:36;2.57;;;0.90;;
13475;SDS011;6810;63.824;20.288;2023-04-06T07:38:04;3.23;;;0.90;;
13475;SDS011;6810;63.824;20.288;2023-04-06T07:40:33;3.93;;;1.57;;
13475;SDS011;6810;63.824;20.288;2023-04-06T07:43:00;0.90;;;0.70;;
13475;SDS011;6810;63.824;20.288;2023-04-06T07:45:28;1.07;;;0.80;;
13475;SDS011;6810;63.824;20.288;2023-04-06T07:47:56;4.43;;;1.03;;
13475;SDS011;6810;63.824;20.288;2023-04-06T07:50:25;1.80;;;0.90;;
13475;SDS011;6810;63.824;20.288;2023-04-06T07:52:53;2.07;;;1.07;;
13475;SDS011;6810;63.824;20.288;2023-04-06T07:55:20;2.43;;;1.40;;
13475;SDS011;6810;63.824;20.288;2023-04-06T07:57:47;2.17;;;1.70;;
13475;SDS011;6810;63.824;20.288;2023-04-06T08:00:14;2.90;;;1.40;;
13475;SDS011;6810;63.824;20.288;2023-04-06T08:02:41;3.10;;;1.30;;
13475;SDS011;6810;63.824;20.288;2023-04-06T08:05:08;2.90;;;1.40;;
13475;SDS011;6810;63.824;20.288;2023-04-06T08:07:36;3.77;;;1.53;;
13475;SDS011;6810;63.824;20.288;2023-04-06T08:10:03;2.17;;;1.30;;
13475;SDS011;6810;63.824;20.288;2023-04-06T08:12:31;3.20;;;1.23;;
13475;SDS011;6810;63.824;20.288;2023-04-06T08:14:59;3.87;;;1.43;;
13475;SDS011;6810;63.824;20.288;2023-04-06T08:17:27;2.03;;;1.23;;
13475;SDS011;6810;63.824;20.288;2023-04-06T08:19:57;2.23;;;1.23;;
13475;SDS011;6810;63.824;20.288;2023-04-06T08:22:24;2.27;;;1.30;;
13475;SDS011;6810;63.824;20.288;2023-04-06T08:24:51;3.53;;;1.40;;
13475;SDS011;6810;63.824;20.288;2023-04-06T08:27:18;3.00;;;1.43;;
13475;SDS011;6810;63.824;20.288;2023-04-06T08:29:45;2.53;;;1.30;;
13475;SDS011;6810;63.824;20.288;2023-04-06T08:32:12;3.33;;;1.13;;
13475;SDS011;6810;63.824;20.288;2023-04-06T08:34:39;1.57;;;1.23;;
13475;SDS011;6810;63.824;20.288;2023-04-06T08:37:06;3.23;;;1.53;;
13475;SDS011;6810;63.824;20.288;2023-04-06T08:39:33;3.33;;;1.37;;
13475;SDS011;6810;63.824;20.288;2023-04-06T08:42:00;3.17;;;1.40;;
13475;SDS011;6810;63.824;20.288;2023-04-06T08:44:30;2.43;;;1.23;;
13475;SDS011;6810;63.824;20.288;2023-04-06T08:47:19;1.63;;;1.27;;
13475;SDS011;6810;63.824;20.288;2023-04-06T08:50:08;3.10;;;1.23;;
13475;SDS011;6810;63.824;20.288;2023-04-06T08:52:56;2.77;;;1.30;;
13475;SDS011;6810;63.824;20.288;2023-04-06T08:55:43;1.53;;;1.03;;
13475;SDS011;6810;63.824;20.288;2023-04-06T08:58:35;2.33;;;1.10;;
13475;SDS011;6810;63.824;20.288;2023-04-06T09:01:27;2.17;;;1.07;;
13475;SDS011;6810;63.824;20.288;2023-04-06T09:04:16;2.40;;;1.00;;
13475;SDS011;6810;63.824;20.288;2023-04-06T09:07:03;1.50;;;1.00;;
13475;SDS011;6810;63.824;20.288;2023-04-06T09:09:50;2.40;;;1.10;;
13475;SDS011;6810;63.824;20.288;2023-04-06T09:12:37;1.97;;;0.90;;
13475;SDS011;6810;63.824;20.288;2023-04-06T09:15:24;2.67;;;1.10;;
13475;SDS011;6810;63.824;20.288;2023-04-06T09:18:12;3.07;;;1.10;;
13475;SDS011;6810;63.824;20.288;2023-04-06T09:21:03;2.87;;;1.47;;
13475;SDS011;6810;63.824;20.288;2023-04-06T09:24:01;1.43;;;1.10;;
13475;SDS011;6810;63.824;20.288;2023-04-06T09:26:49;5.40;;;1.70;;
13475;SDS011;6810;63.824;20.288;2023-04-06T09:29:36;2.33;;;1.10;;
13475;SDS011;6810;63.824;20.288;2023-04-06T09:32:23;2.80;;;1.50;;
13475;SDS011;6810;63.824;20.288;2023-04-06T09:35:10;1.27;;;1.17;;
13475;SDS011;6810;63.824;20.288;2023-04-06T09:37:57;2.83;;;1.30;;
13475;SDS011;6810;63.824;20.288;2023-04-06T09:40:50;4.70;;;1.50;;
13475;SDS011;6810;63.824;20.288;2023-04-06T09:43:37;3.93;;;1.37;;
13475;SDS011;6810;63.824;20.288;2023-04-06T09:46:24;1.47;;;1.30;;
13475;SDS011;6810;63.824;20.288;2023-04-06T09:49:30;1.67;;;1.30;;
13475;SDS011;6810;63.824;20.288;2023-04-06T09:52:19;2.27;;;1.40;;
13475;SDS011;6810;63.824;20.288;2023-04-06T09:55:10;3.43;;;1.20;;
13475;SDS011;6810;63.824;20.288;2023-04-06T09:58:05;3.40;;;1.30;;
13475;SDS011;6810;63.824;20.288;2023-04-06T10:01:12;2.63;;;1.40;;
13475;SDS011;6810;63.824;20.288;2023-04-06T10:04:28;4.53;;;1.53;;
13475;SDS011;6810;63.824;20.288;2023-04-06T10:07:20;1.20;;;1.10;;
13475;SDS011;6810;63.824;20.288;2023-04-06T10:10:25;1.93;;;1.00;;
13475;SDS011;6810;63.824;20.288;2023-04-06T10:13:13;2.27;;;1.00;;
13475;SDS011;6810;63.824;20.288;2023-04-06T10:16:01;1.37;;;0.83;;
13475;SDS011;6810;63.824;20.288;2023-04-06T10:18:51;2.00;;;1.20;;
13475;SDS011;6810;63.824;20.288;2023-04-06T10:21:41;1.10;;;0.80;;
13475;SDS011;6810;63.824;20.288;2023-04-06T10:24:31;1.50;;;0.90;;
13475;SDS011;6810;63.824;20.288;2023-04-06T10:27:27;2.63;;;1.00;;
13475;SDS011;6810;63.824;20.288;2023-04-06T10:30:15;1.67;;;1.10;;
13475;SDS011;6810;63.824;20.288;2023-04-06T10:33:12;2.40;;;1.03;;
13475;SDS011;6810;63.824;20.288;2023-04-06T10:36:09;2.33;;;1.23;;
13475;SDS011;6810;63.824;20.288;2023-04-06T10:39:08;2.17;;;1.10;;
13475;SDS011;6810;63.824;20.288;2023-04-06T10:41:55;2.60;;;1.20;;
13475;SDS011;6810;63.824;20.288;2023-04-06T10:44:53;1.17;;;0.83;;
13475;SDS011;6810;63.824;20.288;2023-04-06T10:47:40;2.60;;;1.20;;
13475;SDS011;6810;63.824;20.288;2023-04-06T10:50:27;3.17;;;1.00;;
13475;SDS011;6810;63.824;20.288;2023-04-06T10:53:22;1.50;;;1.33;;
13475;SDS011;6810;63.824;20.288;2023-04-06T10:56:17;1.63;;;1.30;;
13475;SDS011;6810;63.824;20.288;2023-04-06T10:59:07;2.50;;;1.60;;
13475;SDS011;6810;63.824;20.288;2023-04-06T11:01:54;1.93;;;1.50;;
13475;SDS011;6810;63.824;20.288;2023-04-06T11:04:41;2.10;;;1.33;;
13475;SDS011;6810;63.824;20.288;2023-04-06T11:07:28;2.37;;;1.10;;
13475;SDS011;6810;63.824;20.288;2023-04-06T11:10:21;2.60;;;1.17;;
13475;SDS011;6810;63.824;20.288;2023-04-06T11:13:09;1.60;;;1.03;;
13475;SDS011;6810;63.824;20.288;2023-04-06T11:15:56;1.60;;;1.20;;
13475;SDS011;6810;63.824;20.288;2023-04-06T11:18:49;2.93;;;1.30;;
13475;SDS011;6810;63.824;20.288;2023-04-06T11:24:31;1.47;;;1.37;;
13475;SDS011;6810;63.824;20.288;2023-04-06T11:27:21;2.00;;;1.43;;
13475;SDS011;6810;63.824;20.288;2023-04-06T11:30:09;2.57;;;1.50;;
13475;SDS011;6810;63.824;20.288;2023-04-06T11:33:00;1.57;;;1.27;;
13475;SDS011;6810;63.824;20.288;2023-04-06T11:35:48;2.53;;;1.53;;
13475;SDS011;6810;63.824;20.288;2023-04-06T11:38:38;3.60;;;1.73;;
13475;SDS011;6810;63.824;20.288;2023-04-06T11:41:25;2.00;;;1.67;;
13475;SDS011;6810;63.824;20.288;2023-04-06T11:44:12;3.50;;;1.73;;
13475;SDS011;6810;63.824;20.288;2023-04-06T11:47:03;2.00;;;1.80;;
13475;SDS011;6810;63.824;20.288;2023-04-06T11:49:52;2.30;;;1.60;;
13475;SDS011;6810;63.824;20.288;2023-04-06T11:52:40;2.13;;;1.70;;
13475;SDS011;6810;63.824;20.288;2023-04-06T11:55:27;2.43;;;1.70;;
13475;SDS011;6810;63.824;20.288;2023-04-06T11:58:14;1.60;;;1.20;;
13475;SDS011;6810;63.824;20.288;2023-04-06T12:01:04;3.73;;;1.50;;
13475;SDS011;6810;63.824;20.288;2023-04-06T12:03:51;1.67;;;1.20;;
13475;SDS011;6810;63.824;20.288;2023-04-06T12:06:39;3.13;;;1.50;;
13475;SDS011;6810;63.824;20.288;2023-04-06T12:09:26;2.17;;;1.30;;
13475;SDS011;6810;63.824;20.288;2023-04-06T12:12:13;1.60;;;1.40;;
13475;SDS011;6810;63.824;20.288;2023-04-06T12:15:00;2.60;;;1.30;;
13475;SDS011;6810;63.824;20.288;2023-04-06T12:17:47;1.57;;;1.20;;
13475;SDS011;6810;63.824;20.288;2023-04-06T12:20:34;2.03;;;1.40;;
13475;SDS011;6810;63.824;20.288;2023-04-06T12:23:21;1.67;;;1.00;;
13475;SDS011;6810;63.824;20.288;2023-04-06T12:26:08;2.40;;;1.10;;
13475;SDS011;6810;63.824;20.288;2023-04-06T12:28:55;1.47;;;1.00;;
13475;SDS011;6810;63.824;20.288;2023-04-06T12:31:42;2.40;;;1.10;;
13475;SDS011;6810;63.824;20.288;2023-04-06T12:34:29;1.40;;;0.80;;
13475;SDS011;6810;63.824;20.288;2023-04-06T12:37:16;3.03;;;0.90;;
13475;SDS011;6810;63.824;20.288;2023-04-06T12:40:04;1.33;;;0.70;;
13475;SDS011;6810;63.824;20.288;2023-04-06T12:42:51;0.97;;;0.73;;
13475;SDS011;6810;63.824;20.288;2023-04-06T12:45:39;0.90;;;0.70;;
13475;SDS011;6810;63.824;20.288;2023-04-06T12:48:26;1.53;;;0.90;;
13475;SDS011;6810;63.824;20.288;2023-04-06T12:51:13;0.83;;;0.80;;
13475;SDS011;6810;63.824;20.288;2023-04-06T12:54:00;1.37;;;0.70;;
13475;SDS011;6810;63.824;20.288;2023-04-06T12:56:47;2.13;;;1.10;;
13475;SDS011;6810;63.824;20.288;2023-04-06T12:59:34;1.17;;;0.80;;
13475;SDS011;6810;63.824;20.288;2023-04-06T13:02:21;1.23;;;0.90;;
13475;SDS011;6810;63.824;20.288;2023-04-06T13:05:11;1.07;;;0.70;;
13475;SDS011;6810;63.824;20.288;2023-04-06T13:07:59;1.43;;;0.90;;
13475;SDS011;6810;63.824;20.288;2023-04-06T13:10:47;1.83;;;0.90;;
13475;SDS011;6810;63.824;20.288;2023-04-06T13:13:35;2.43;;;0.80;;
13475;SDS011;6810;63.824;20.288;2023-04-06T13:16:23;1.77;;;0.90;;
13475;SDS011;6810;63.824;20.288;2023-04-06T13:19:10;1.93;;;1.00;;
13475;SDS011;6810;63.824;20.288;2023-04-06T13:21:57;3.13;;;0.90;;
13475;SDS011;6810;63.824;20.288;2023-04-06T13:24:44;1.87;;;0.90;;
13475;SDS011;6810;63.824;20.288;2023-04-06T13:27:31;1.07;;;0.97;;
13475;SDS011;6810;63.824;20.288;2023-04-06T13:30:18;1.10;;;0.60;;
13475;SDS011;6810;63.824;20.288;2023-04-06T13:33:06;1.13;;;0.80;;
13475;SDS011;6810;63.824;20.288;2023-04-06T13:35:53;0.80;;;0.70;;
13475;SDS011;6810;63.824;20.288;2023-04-06T13:38:43;2.97;;;1.00;;
13475;SDS011;6810;63.824;20.288;2023-04-06T13:41:31;1.10;;;0.83;;
13475;SDS011;6810;63.824;20.288;2023-04-06T13:44:18;1.07;;;0.80;;
13475;SDS011;6810;63.824;20.288;2023-04-06T13:47:14;1.13;;;0.90;;
13475;SDS011;6810;63.824;20.288;2023-04-06T13:50:01;1.77;;;1.07;;
13475;SDS011;6810;63.824;20.288;2023-04-06T13:52:48;3.73;;;1.03;;
13475;SDS011;6810;63.824;20.288;2023-04-06T13:55:35;2.90;;;1.00;;
13475;SDS011;6810;63.824;20.288;2023-04-06T13:58:22;1.97;;;1.37;;
13475;SDS011;6810;63.824;20.288;2023-04-06T14:01:10;3.17;;;1.07;;
13475;SDS011;6810;63.824;20.288;2023-04-06T14:03:57;1.60;;;0.93;;
13475;SDS011;6810;63.824;20.288;2023-04-06T14:06:44;1.50;;;1.17;;
13475;SDS011;6810;63.824;20.288;2023-04-06T14:09:32;1.70;;;1.20;;
13475;SDS011;6810;63.824;20.288;2023-04-06T14:12:20;3.63;;;1.13;;
13475;SDS011;6810;63.824;20.288;2023-04-06T14:15:08;2.90;;;1.30;;
13475;SDS011;6810;63.824;20.288;2023-04-06T14:17:56;1.47;;;1.00;;
13475;SDS011;6810;63.824;20.288;2023-04-06T14:20:46;1.47;;;1.13;;
13475;SDS011;6810;63.824;20.288;2023-04-06T14:23:39;2.57;;;0.97;;
13475;SDS011;6810;63.824;20.288;2023-04-06T14:26:27;1.30;;;1.07;;
13475;SDS011;6810;63.824;20.288;2023-04-06T14:29:13;2.77;;;1.17;;
13475;SDS011;6810;63.824;20.288;2023-04-06T14:32:02;1.87;;;1.10;;
13475;SDS011;6810;63.824;20.288;2023-04-06T14:34:49;2.33;;;1.17;;
13475;SDS011;6810;63.824;20.288;2023-04-06T14:37:36;1.30;;;1.03;;
13475;SDS011;6810;63.824;20.288;2023-04-06T14:40:24;2.10;;;1.20;;
13475;SDS011;6810;63.824;20.288;2023-04-06T14:43:11;3.40;;;1.40;;
13475;SDS011;6810;63.824;20.288;2023-04-06T14:46:01;3.80;;;1.20;;
13475;SDS011;6810;63.824;20.288;2023-04-06T14:48:49;1.47;;;1.10;;
13475;SDS011;6810;63.824;20.288;2023-04-06T14:51:36;2.27;;;1.33;;
13475;SDS011;6810;63.824;20.288;2023-04-06T14:54:23;2.30;;;1.30;;
13475;SDS011;6810;63.824;20.288;2023-04-06T14:57:10;1.73;;;1.07;;
13475;SDS011;6810;63.824;20.288;2023-04-06T14:59:57;2.17;;;1.30;;
13475;SDS011;6810;63.824;20.288;2023-04-06T15:02:44;2.10;;;1.30;;
13475;SDS011;6810;63.824;20.288;2023-04-06T15:05:33;2.00;;;1.20;;
13475;SDS011;6810;63.824;20.288;2023-04-06T15:08:21;6.07;;;1.50;;
13475;SDS011;6810;63.824;20.288;2023-04-06T15:11:10;2.00;;;1.10;;
13475;SDS011;6810;63.824;20.288;2023-04-06T15:14:00;2.30;;;1.33;;
13475;SDS011;6810;63.824;20.288;2023-04-06T15:16:47;1.93;;;1.10;;
13475;SDS011;6810;63.824;20.288;2023-04-06T15:19:34;2.33;;;1.30;;
13475;SDS011;6810;63.824;20.288;2023-04-06T15:22:21;2.07;;;1.43;;
13475;SDS011;6810;63.824;20.288;2023-04-06T15:25:08;4.33;;;1.30;;
13475;SDS011;6810;63.824;20.288;2023-04-06T15:27:55;1.83;;;1.27;;
13475;SDS011;6810;63.824;20.288;2023-04-06T15:30:42;2.43;;;1.10;;
13475;SDS011;6810;63.824;20.288;2023-04-06T15:33:30;2.47;;;1.30;;
13475;SDS011;6810;63.824;20.288;2023-04-06T15:36:22;2.33;;;1.40;;
13475;SDS011;6810;63.824;20.288;2023-04-06T15:39:13;1.40;;;1.30;;
13475;SDS011;6810;63.824;20.288;2023-04-06T15:42:00;4.57;;;1.30;;
13475;SDS011;6810;63.824;20.288;2023-04-06T15:44:47;2.87;;;1.30;;
13475;SDS011;6810;63.824;20.288;2023-04-06T15:47:34;2.50;;;1.20;;
13475;SDS011;6810;63.824;20.288;2023-04-06T15:50:21;2.07;;;1.37;;
13475;SDS011;6810;63.824;20.288;2023-04-06T15:53:08;3.13;;;1.40;;